createdAt,value
2018-12-11T00:00:20.801Z,91.79
2018-12-11T00:02:49.086Z,91.48
2018-12-11T00:05:17.367Z,92.01
2018-12-11T00:07:45.609Z,93.18
2018-12-11T00:10:13.946Z,93.70
2018-12-11T00:12:42.180Z,93.44
2018-12-11T00:15:10.812Z,93.24
2018-12-11T00:17:39.114Z,93.56
2018-12-11T00:20:07.439Z,93.13
2018-12-11T00:22:35.736Z,92.96
2018-12-11T00:25:04.169Z,93.42
2018-12-11T00:27:32.420Z,92.63
2018-12-11T00:30:00.688Z,93.03
2018-12-11T00:32:28.993Z,92.08
2018-12-11T00:34:57.196Z,93.42
2018-12-11T00:37:25.404Z,94.37
2018-12-11T00:39:53.779Z,94.10
2018-12-11T00:42:22.048Z,94.68
2018-12-11T00:44:50.350Z,94.45
2018-12-11T00:47:18.553Z,94.48
2018-12-11T00:49:47.782Z,93.62
2018-12-11T00:52:16.085Z,93.11
2018-12-11T00:54:44.329Z,93.05
2018-12-11T00:57:12.589Z,93.83
2018-12-11T00:59:40.814Z,93.53
2018-12-11T01:02:09.036Z,94.22
2018-12-11T01:04:37.287Z,95.62
2018-12-11T01:07:05.728Z,95.82
2018-12-11T01:09:33.932Z,95.37
2018-12-11T01:12:02.227Z,96.01
2018-12-11T01:14:30.577Z,95.38
2018-12-11T01:16:58.913Z,95.74
2018-12-11T01:19:27.198Z,94.75
2018-12-11T01:21:55.403Z,94.19
2018-12-11T01:24:23.805Z,93.51
2018-12-11T01:26:52.082Z,92.84
2018-12-11T01:29:20.324Z,93.11
2018-12-11T01:31:48.593Z,93.63
2018-12-11T01:34:16.814Z,93.29
2018-12-11T01:36:45.047Z,94.02
2018-12-11T01:39:13.354Z,94.54
2018-12-11T01:41:41.546Z,95.34
2018-12-11T01:44:09.951Z,95.87
2018-12-11T01:46:38.436Z,94.58
2018-12-11T01:49:06.829Z,94.39
2018-12-11T01:51:35.108Z,94.65
2018-12-11T01:54:03.301Z,93.36
2018-12-11T01:56:31.646Z,93.83
2018-12-11T01:59:00.768Z,94.48
2018-12-11T02:01:29.170Z,95.51
2018-12-11T02:03:57.579Z,95.98
2018-12-11T02:06:25.969Z,95.32
2018-12-11T02:08:54.362Z,95.36
2018-12-11T02:11:22.598Z,95.10
2018-12-11T02:13:50.981Z,95.16
2018-12-11T02:16:19.163Z,93.96
2018-12-11T02:18:48.172Z,94.05
2018-12-11T02:21:16.404Z,93.01
2018-12-11T02:23:44.652Z,93.38
2018-12-11T02:26:12.953Z,93.80
2018-12-11T02:28:41.262Z,94.96
2018-12-11T02:31:09.502Z,95.55
2018-12-11T02:33:37.843Z,94.87
2018-12-11T02:36:06.052Z,95.11
2018-12-11T02:38:34.290Z,96.86
2018-12-11T02:41:02.518Z,96.05
2018-12-11T02:43:30.759Z,96.18
2018-12-11T02:45:59.031Z,96.13
2018-12-11T02:48:27.247Z,94.06
2018-12-11T02:50:55.630Z,94.26
2018-12-11T02:53:23.899Z,92.21
2018-12-11T02:55:56.292Z,93.00
2018-12-11T02:58:29.286Z,93.74
2018-12-11T03:00:59.221Z,94.85
2018-12-11T03:03:29.987Z,96.56
2018-12-11T03:05:59.931Z,96.97
2018-12-11T03:08:28.772Z,96.62
2018-12-11T03:10:57.267Z,96.42
2018-12-11T03:13:25.925Z,96.38
2018-12-11T03:15:54.221Z,96.40
2018-12-11T03:18:22.529Z,96.29
2018-12-11T03:20:50.956Z,95.86
2018-12-11T03:23:19.257Z,95.27
2018-12-11T03:25:49.458Z,94.11
2018-12-11T03:28:19.357Z,93.95
2018-12-11T03:30:50.376Z,94.37
2018-12-11T03:33:20.110Z,95.28
2018-12-11T03:35:53.914Z,95.09
2018-12-11T03:38:23.342Z,95.43
2018-12-11T03:40:55.389Z,95.73
2018-12-11T03:43:27.104Z,96.38
2018-12-11T03:45:55.601Z,95.27
2018-12-11T03:48:23.888Z,95.21
2018-12-11T03:50:52.272Z,95.00
2018-12-11T03:53:23.312Z,95.46
2018-12-11T03:55:51.852Z,95.04
2018-12-11T03:58:20.586Z,96.87
2018-12-11T04:00:50.356Z,96.97
2018-12-11T04:03:18.723Z,96.62
2018-12-11T04:05:49.217Z,96.92
2018-12-11T04:08:18.173Z,97.03
2018-12-11T04:10:49.267Z,96.69
2018-12-11T04:13:20.303Z,96.84
2018-12-11T04:15:48.660Z,95.82
2018-12-11T04:18:16.881Z,97.22
2018-12-11T04:20:45.137Z,97.59
2018-12-11T04:23:13.529Z,97.52
2018-12-11T04:25:41.794Z,96.58
2018-12-11T04:28:10.066Z,96.69
2018-12-11T04:30:38.596Z,96.55
2018-12-11T04:33:06.825Z,95.86
2018-12-11T04:35:35.077Z,96.43
2018-12-11T04:38:03.925Z,96.62
2018-12-11T04:40:32.208Z,96.83
2018-12-11T04:43:00.445Z,97.28
2018-12-11T04:45:28.741Z,97.66
2018-12-11T04:47:57.080Z,97.35
2018-12-11T04:50:26.463Z,97.38
2018-12-11T04:52:54.676Z,97.28
2018-12-11T04:55:24.312Z,96.78
2018-12-11T04:57:52.873Z,96.39
2018-12-11T05:00:21.126Z,97.21
2018-12-11T05:02:49.406Z,97.59
2018-12-11T05:05:17.644Z,97.54
2018-12-11T05:07:46.022Z,97.46
2018-12-11T05:10:14.370Z,97.99
2018-12-11T05:12:42.897Z,97.74
2018-12-11T05:15:11.165Z,98.17
2018-12-11T05:17:39.388Z,97.33
2018-12-11T05:20:07.826Z,97.08
2018-12-11T05:22:36.099Z,96.90
2018-12-11T05:25:04.928Z,97.67
2018-12-11T05:27:33.403Z,98.14
2018-12-11T05:30:01.652Z,98.08
2018-12-11T05:32:30.536Z,97.91
2018-12-11T05:34:58.837Z,97.85
2018-12-11T05:37:27.850Z,97.95
2018-12-11T05:39:56.151Z,97.63
2018-12-11T05:42:24.397Z,97.94
2018-12-11T05:44:52.979Z,97.66
2018-12-11T05:47:21.221Z,97.94
2018-12-11T05:49:49.466Z,98.06
2018-12-11T05:52:18.319Z,97.50
2018-12-11T05:54:46.708Z,97.58
2018-12-11T05:57:15.400Z,97.03
2018-12-11T05:59:43.712Z,97.60
2018-12-11T06:02:12.003Z,97.33
2018-12-11T06:04:40.810Z,97.77
2018-12-11T06:07:09.184Z,97.52
2018-12-11T06:09:37.479Z,97.49
2018-12-11T06:12:06.265Z,97.66
2018-12-11T06:14:34.527Z,97.39
2018-12-11T06:17:02.839Z,97.19
2018-12-11T06:19:34.071Z,96.35
2018-12-11T06:22:04.680Z,96.48
2018-12-11T06:24:32.966Z,96.63
2018-12-11T06:27:01.777Z,96.33
2018-12-11T06:29:30.123Z,95.77
2018-12-11T06:31:58.462Z,95.38
2018-12-11T06:34:27.619Z,95.44
2018-12-11T06:37:02.648Z,95.14
2018-12-11T06:39:31.238Z,94.53
2018-12-11T06:42:00.132Z,95.22
2018-12-11T06:44:28.536Z,95.36
2018-12-11T06:46:56.756Z,95.70
2018-12-11T06:49:25.048Z,96.74
2018-12-11T06:51:53.414Z,97.12
2018-12-11T06:54:21.700Z,97.12
2018-12-11T06:56:51.802Z,96.92
2018-12-11T06:59:20.084Z,96.04
2018-12-11T07:01:48.450Z,95.90
2018-12-11T07:04:16.783Z,96.24
2018-12-11T07:06:45.726Z,95.64
2018-12-11T07:09:14.033Z,95.63
2018-12-11T07:11:42.402Z,95.28
2018-12-11T07:14:11.416Z,94.00
2018-12-11T07:16:40.913Z,93.87
2018-12-11T07:19:09.161Z,94.49
2018-12-11T07:21:37.430Z,93.59
2018-12-11T07:24:05.641Z,93.95
2018-12-11T07:26:33.850Z,94.32
2018-12-11T07:29:02.500Z,94.05
2018-12-11T07:31:30.790Z,93.55
2018-12-11T07:33:59.017Z,94.50
2018-12-11T07:36:27.269Z,95.57
2018-12-11T07:38:55.566Z,96.43
2018-12-11T07:41:24.273Z,96.33
2018-12-11T07:43:52.773Z,96.18
2018-12-11T07:46:21.181Z,96.39
2018-12-11T07:48:49.455Z,96.81
2018-12-11T07:51:17.748Z,96.76
2018-12-11T07:53:46.464Z,97.13
2018-12-11T07:56:14.750Z,97.10
2018-12-11T07:58:43.025Z,97.34
2018-12-11T08:01:11.288Z,96.80
2018-12-11T08:03:39.601Z,96.81
2018-12-11T08:06:08.138Z,96.26
2018-12-11T08:08:36.988Z,96.67
2018-12-11T08:11:05.285Z,96.67
2018-12-11T08:13:33.527Z,96.05
2018-12-11T08:16:01.762Z,95.65
2018-12-11T08:18:30.796Z,96.03
2018-12-11T08:20:59.065Z,96.59
2018-12-11T08:23:27.327Z,96.59
2018-12-11T08:25:55.684Z,96.88
2018-12-11T08:28:24.077Z,96.80
2018-12-11T08:30:52.849Z,97.17
2018-12-11T08:33:21.743Z,97.42
2018-12-11T08:35:50.153Z,96.76
2018-12-11T08:38:18.667Z,96.26
2018-12-11T08:40:46.916Z,96.05
2018-12-11T08:43:15.603Z,95.39
2018-12-11T08:45:44.113Z,95.18
2018-12-11T08:48:12.386Z,94.50
2018-12-11T08:50:40.661Z,94.33
2018-12-11T08:53:08.981Z,93.02
2018-12-11T08:55:37.658Z,94.00
2018-12-11T08:58:06.265Z,93.99
2018-12-11T09:00:34.493Z,92.97
2018-12-11T09:03:03.197Z,91.94
2018-12-11T09:05:31.522Z,91.28
2018-12-11T09:07:59.849Z,90.90
2018-12-11T09:10:28.056Z,91.20
2018-12-11T09:12:56.474Z,91.00
2018-12-11T09:15:25.328Z,92.12
2018-12-11T09:17:53.535Z,92.32
2018-12-11T09:20:22.437Z,92.22
2018-12-11T09:22:50.790Z,92.05
2018-12-11T09:25:18.991Z,92.90
2018-12-11T09:27:47.205Z,92.74
2018-12-11T09:30:15.426Z,93.61
2018-12-11T09:32:44.249Z,94.62
2018-12-11T09:35:12.471Z,95.04
2018-12-11T09:37:41.749Z,94.38
2018-12-11T09:40:10.045Z,94.05
2018-12-11T09:42:39.124Z,93.25
2018-12-11T09:45:08.527Z,92.99
2018-12-11T09:47:36.779Z,93.72
2018-12-11T09:50:05.495Z,93.86
2018-12-11T09:52:34.201Z,92.79
2018-12-11T09:55:02.578Z,90.08
2018-12-11T09:57:31.509Z,87.66
2018-12-11T10:00:05.123Z,86.29
2018-12-11T10:02:33.482Z,86.27
2018-12-11T10:05:03.316Z,85.55
2018-12-11T10:07:31.561Z,85.44
2018-12-11T10:09:59.892Z,84.01
2018-12-11T10:12:28.349Z,83.49
2018-12-11T10:14:57.312Z,82.96
2018-12-11T10:17:25.900Z,82.75
2018-12-11T10:19:54.168Z,82.37
2018-12-11T10:22:22.440Z,82.22
2018-12-11T10:24:51.454Z,82.79
2018-12-11T10:27:20.313Z,85.48
2018-12-11T10:29:51.943Z,85.77
2018-12-11T10:32:23.554Z,86.26
2018-12-11T10:34:53.066Z,86.41
2018-12-11T10:37:21.373Z,85.61
2018-12-11T10:39:49.549Z,86.40
2018-12-11T10:42:17.862Z,86.35
2018-12-11T10:44:46.140Z,86.95
2018-12-11T10:47:15.288Z,86.47
2018-12-11T10:49:43.504Z,87.25
2018-12-11T10:52:11.782Z,87.73
2018-12-11T10:54:40.072Z,87.91
2018-12-11T10:57:08.333Z,87.45
2018-12-11T10:59:36.759Z,87.34
2018-12-11T11:02:10.561Z,87.47
2018-12-11T11:04:38.820Z,87.10
2018-12-11T11:07:07.068Z,86.66
2018-12-11T11:09:35.246Z,88.94
2018-12-11T11:12:03.520Z,90.18
2018-12-11T11:14:31.807Z,90.50
2018-12-11T11:17:00.192Z,90.90
2018-12-11T11:19:28.438Z,90.49
2018-12-11T11:21:56.624Z,91.38
2018-12-11T11:24:24.805Z,92.45
2018-12-11T11:26:53.057Z,93.38
2018-12-11T11:29:21.264Z,93.46
2018-12-11T11:31:49.507Z,94.34
2018-12-11T11:34:17.693Z,93.60
2018-12-11T11:36:45.876Z,92.12
2018-12-11T11:39:14.129Z,87.37
2018-12-11T11:41:42.772Z,86.17
2018-12-11T11:44:10.949Z,85.55
2018-12-11T11:46:39.162Z,85.01
2018-12-11T11:49:07.365Z,85.70
2018-12-11T11:51:35.611Z,85.93
2018-12-11T11:54:03.817Z,86.88
2018-12-11T11:56:32.082Z,86.60
2018-12-11T11:59:00.253Z,85.64
2018-12-11T12:01:28.614Z,83.67
2018-12-11T12:03:56.983Z,83.17
2018-12-11T12:06:27.083Z,83.11
2018-12-11T12:08:59.345Z,84.42
2018-12-11T12:11:25.499Z,84.58
2018-12-11T12:13:53.688Z,84.65
2018-12-11T12:16:21.863Z,84.38
2018-12-11T12:18:50.500Z,83.71
2018-12-11T12:21:18.702Z,84.66
2018-12-11T12:23:46.859Z,82.58
2018-12-11T12:26:15.111Z,84.30
2018-12-11T12:28:43.279Z,86.12
2018-12-11T12:31:12.285Z,83.34
2018-12-11T12:33:40.495Z,83.17
2018-12-11T12:36:08.664Z,81.67
2018-12-11T12:38:36.853Z,80.44
2018-12-11T12:41:04.998Z,78.94
2018-12-11T12:43:33.559Z,77.97
2018-12-11T12:46:01.761Z,79.53
2018-12-11T12:48:29.932Z,77.85
2018-12-11T12:50:58.184Z,77.88
2018-12-11T12:53:26.385Z,78.80
2018-12-11T12:55:54.731Z,78.21
2018-12-11T12:58:22.939Z,75.75
2018-12-11T13:00:51.516Z,74.71
2018-12-11T13:03:19.902Z,75.75
2018-12-11T13:05:48.088Z,76.72
2018-12-11T13:08:16.917Z,75.72
2018-12-11T13:10:45.065Z,75.97
2018-12-11T13:13:13.236Z,72.98
2018-12-11T13:15:41.493Z,74.11
2018-12-11T13:18:09.664Z,74.29
2018-12-11T13:20:38.725Z,71.34
2018-12-11T13:23:06.998Z,70.38
2018-12-11T13:25:35.167Z,72.59
2018-12-11T13:28:03.334Z,71.15
2018-12-11T13:30:31.512Z,69.74
2018-12-11T13:32:59.716Z,69.03
2018-12-11T13:35:27.966Z,71.77
2018-12-11T13:37:56.154Z,72.41
2018-12-11T13:40:24.618Z,70.04
2018-12-11T13:42:52.892Z,69.87
2018-12-11T13:45:21.334Z,70.28
2018-12-11T13:47:49.643Z,68.51
2018-12-11T13:50:17.912Z,69.82
2018-12-11T13:52:46.085Z,69.86
2018-12-11T13:55:14.254Z,71.54
2018-12-11T13:57:42.526Z,67.76
2018-12-11T14:00:10.774Z,67.39
2018-12-11T14:02:40.051Z,68.64
2018-12-11T14:05:08.400Z,70.78
2018-12-11T14:07:36.587Z,68.81
2018-12-11T14:10:05.526Z,68.48
2018-12-11T14:12:33.685Z,68.91
2018-12-11T14:15:01.855Z,68.59
2018-12-11T14:17:30.147Z,69.21
2018-12-11T14:19:58.308Z,68.57
2018-12-11T14:22:26.511Z,69.25
2018-12-11T14:24:54.668Z,70.19
2018-12-11T14:27:22.826Z,69.35
2018-12-11T14:29:51.097Z,70.59
2018-12-11T14:32:19.386Z,70.52
2018-12-11T14:34:47.872Z,70.54
2018-12-11T14:37:16.166Z,70.30
2018-12-11T14:39:44.428Z,71.31
2018-12-11T14:42:12.596Z,71.83
2018-12-11T14:44:40.842Z,71.16
2018-12-11T14:47:09.494Z,72.34
2018-12-11T14:49:37.710Z,72.44
2018-12-11T14:52:05.870Z,71.58
2018-12-11T14:54:34.034Z,71.90
2018-12-11T14:57:02.222Z,73.00
2018-12-11T14:59:30.476Z,72.57
2018-12-11T15:01:58.771Z,72.39
2018-12-11T15:04:27.038Z,72.41
2018-12-11T15:06:55.699Z,73.11
2018-12-11T15:09:29.399Z,72.96
2018-12-11T15:11:57.584Z,73.06
2018-12-11T15:14:25.740Z,74.29
2018-12-11T15:16:53.890Z,74.39
2018-12-11T15:19:22.404Z,75.05
2018-12-11T15:21:50.549Z,74.04
2018-12-11T15:24:18.706Z,74.33
2018-12-11T15:26:47.261Z,73.85
2018-12-11T15:29:15.507Z,74.35
2018-12-11T15:31:43.658Z,74.52
2018-12-11T15:34:12.469Z,74.50
2018-12-11T15:36:40.618Z,75.43
2018-12-11T15:39:08.827Z,77.59
2018-12-11T15:41:36.976Z,80.12
2018-12-11T15:44:05.232Z,80.26
2018-12-11T15:46:33.463Z,81.37
2018-12-11T15:49:01.615Z,81.52
2018-12-11T15:51:29.882Z,81.18
2018-12-11T15:53:58.092Z,81.32
2018-12-11T15:56:26.235Z,81.41
2018-12-11T15:58:54.393Z,80.73
2018-12-11T16:01:22.572Z,81.09
2018-12-11T16:03:51.937Z,81.68
2018-12-11T16:06:20.151Z,82.23
2018-12-11T16:08:48.322Z,82.15
2018-12-11T16:11:16.502Z,82.26
2018-12-11T16:13:45.945Z,82.35
2018-12-11T16:16:14.126Z,82.57
2018-12-11T16:18:42.300Z,84.15
2018-12-11T16:21:10.493Z,83.87
2018-12-11T16:23:38.668Z,83.39
2018-12-11T16:26:06.850Z,82.44
2018-12-11T16:28:35.066Z,83.83
2018-12-11T16:31:03.240Z,84.83
2018-12-11T16:33:31.412Z,85.31
2018-12-11T16:36:00.066Z,87.65
2018-12-11T16:38:28.378Z,90.26
2018-12-11T16:40:56.699Z,91.38
2018-12-11T16:43:26.313Z,90.37
2018-12-11T16:45:54.792Z,87.87
2018-12-11T16:48:22.991Z,88.01
2018-12-11T16:50:51.901Z,87.65
2018-12-11T16:53:20.102Z,87.30
2018-12-11T16:55:48.389Z,87.26
2018-12-11T16:58:17.030Z,86.92
2018-12-11T17:00:45.213Z,87.21
2018-12-11T17:03:13.551Z,88.34
2018-12-11T17:05:41.747Z,88.28
2018-12-11T17:08:10.001Z,88.60
2018-12-11T17:10:39.336Z,90.46
2018-12-11T17:13:07.653Z,90.34
2018-12-11T17:15:36.221Z,90.96
2018-12-11T17:18:05.577Z,90.74
2018-12-11T17:20:34.854Z,90.85
2018-12-11T17:23:03.126Z,90.55
2018-12-11T17:25:31.746Z,89.73
2018-12-11T17:28:00.136Z,89.25
2018-12-11T17:30:28.469Z,89.64
2018-12-11T17:32:56.785Z,90.56
2018-12-11T17:35:25.271Z,90.82
2018-12-11T17:37:53.505Z,91.57
2018-12-11T17:40:21.871Z,91.07
2018-12-11T17:42:50.117Z,90.68
2018-12-11T17:45:18.299Z,90.64
2018-12-11T17:47:46.535Z,90.30
2018-12-11T17:50:14.854Z,89.90
2018-12-11T17:52:43.069Z,89.37
2018-12-11T17:55:12.069Z,89.68
2018-12-11T17:57:40.280Z,89.65
2018-12-11T18:00:09.722Z,89.98
2018-12-11T18:02:39.565Z,89.60
2018-12-11T18:05:07.987Z,89.56
2018-12-11T18:07:36.352Z,89.80
2018-12-11T18:10:06.301Z,89.65
2018-12-11T18:12:34.576Z,89.29
2018-12-11T18:15:02.825Z,88.64
2018-12-11T18:17:31.011Z,88.61
2018-12-11T18:19:59.825Z,89.26
2018-12-11T18:22:28.168Z,90.51
2018-12-11T18:24:56.424Z,90.01
2018-12-11T18:27:24.650Z,90.95
2018-12-11T18:29:52.830Z,90.84
2018-12-11T18:32:25.137Z,90.98
2018-12-11T18:34:52.072Z,91.08
2018-12-11T18:37:20.648Z,90.48
2018-12-11T18:39:49.517Z,90.64
2018-12-11T18:42:17.761Z,89.98
2018-12-11T18:44:46.114Z,89.35
2018-12-11T18:47:14.321Z,89.58
2018-12-11T18:49:42.571Z,90.53
2018-12-11T18:52:14.116Z,90.41
2018-12-11T18:54:42.321Z,90.15
2018-12-11T18:57:10.680Z,90.44
2018-12-11T18:59:38.995Z,91.32
2018-12-11T19:02:07.205Z,92.48
2018-12-11T19:04:35.512Z,92.58
2018-12-11T19:07:04.326Z,92.35
2018-12-11T19:09:32.843Z,91.90
2018-12-11T19:12:01.116Z,92.07
2018-12-11T19:14:29.424Z,90.50
2018-12-11T19:16:57.608Z,90.86
2018-12-11T19:19:26.501Z,90.29
2018-12-11T19:21:54.672Z,90.32
2018-12-11T19:24:28.545Z,91.53
2018-12-11T19:26:56.845Z,92.32
2018-12-11T19:29:25.129Z,92.23
2018-12-11T19:31:53.881Z,91.64
2018-12-11T19:34:22.119Z,91.49
2018-12-11T19:36:50.344Z,91.90
2018-12-11T19:39:18.692Z,91.78
2018-12-11T19:41:46.936Z,92.28
2018-12-11T19:44:15.344Z,91.86
2018-12-11T19:46:43.609Z,92.20
2018-12-11T19:49:12.830Z,92.47
2018-12-11T19:51:41.128Z,92.58
2018-12-11T19:54:09.556Z,93.34
2018-12-11T19:56:37.807Z,93.68
2018-12-11T19:59:06.066Z,94.42
2018-12-11T20:01:34.364Z,94.26
2018-12-11T20:04:03.196Z,93.74
2018-12-11T20:06:31.396Z,93.82
2018-12-11T20:08:59.951Z,91.76
2018-12-11T20:11:28.337Z,91.76
2018-12-11T20:13:57.042Z,91.62
2018-12-11T20:16:25.552Z,90.79
2018-12-11T20:18:53.731Z,90.05
2018-12-11T20:21:21.985Z,90.12
2018-12-11T20:23:50.178Z,90.19
2018-12-11T20:26:18.465Z,90.66
2018-12-11T20:28:46.791Z,91.84
2018-12-11T20:31:15.037Z,91.54
2018-12-11T20:33:43.275Z,92.56
2018-12-11T20:36:11.543Z,93.34
2018-12-11T20:38:39.736Z,93.34
2018-12-11T20:41:08.115Z,94.82
2018-12-11T20:43:36.735Z,94.71
2018-12-11T20:46:05.081Z,92.72
2018-12-11T20:48:33.590Z,92.30
2018-12-11T20:51:01.826Z,92.16
2018-12-11T20:53:30.113Z,93.91
2018-12-11T20:55:58.497Z,95.00
2018-12-11T20:58:26.755Z,94.84
2018-12-11T21:00:55.275Z,93.92
2018-12-11T21:03:24.144Z,93.12
2018-12-11T21:05:52.412Z,92.19
2018-12-11T21:08:23.197Z,92.10
2018-12-11T21:10:51.401Z,92.77
2018-12-11T21:13:24.930Z,92.94
2018-12-11T21:15:53.353Z,93.53
2018-12-11T21:18:21.667Z,93.48
2018-12-11T21:20:50.009Z,92.12
2018-12-11T21:23:19.621Z,90.83
2018-12-11T21:25:48.446Z,90.80
2018-12-11T21:28:16.686Z,91.56
2018-12-11T21:30:44.893Z,91.63
2018-12-11T21:33:13.396Z,92.84
2018-12-11T21:35:42.358Z,92.90
2018-12-11T21:38:11.480Z,92.83
2018-12-11T21:40:39.695Z,92.62
2018-12-11T21:43:08.013Z,92.29
2018-12-11T21:45:36.314Z,92.23
2018-12-11T21:48:04.529Z,91.85
2018-12-11T21:50:32.691Z,93.04
2018-12-11T21:53:00.887Z,93.10
2018-12-11T21:55:29.177Z,93.08
2018-12-11T21:57:57.455Z,93.08
2018-12-11T22:00:26.611Z,93.05
2018-12-11T22:02:54.913Z,92.51
2018-12-11T22:05:24.006Z,92.63
2018-12-11T22:07:52.204Z,92.89
2018-12-11T22:10:21.003Z,92.31
2018-12-11T22:12:50.039Z,92.79
2018-12-11T22:15:18.486Z,92.49
2018-12-11T22:17:46.702Z,92.30
2018-12-11T22:20:15.172Z,92.59
2018-12-11T22:22:43.377Z,92.67
2018-12-11T22:25:12.205Z,92.35
2018-12-11T22:27:40.388Z,92.16
2018-12-11T22:30:08.707Z,92.24
2018-12-11T22:32:38.074Z,92.16
2018-12-11T22:35:06.385Z,92.35
2018-12-11T22:37:34.669Z,91.88
2018-12-11T22:40:03.099Z,91.75
2018-12-11T22:42:31.369Z,91.67
2018-12-11T22:44:59.524Z,91.88
2018-12-11T22:47:27.845Z,91.74
2018-12-11T22:49:55.991Z,91.47
2018-12-11T22:52:24.247Z,91.24
2018-12-11T22:54:52.459Z,91.39
2018-12-11T22:57:20.641Z,91.58
2018-12-11T22:59:48.833Z,91.94
2018-12-11T23:02:18.908Z,91.87
2018-12-11T23:04:47.549Z,92.23
2018-12-11T23:07:15.790Z,91.91
2018-12-11T23:09:45.166Z,91.78
2018-12-11T23:12:13.938Z,91.67
2018-12-11T23:14:42.267Z,91.87
2018-12-11T23:17:10.423Z,92.56
2018-12-11T23:19:39.074Z,92.78
2018-12-11T23:22:07.286Z,93.21
2018-12-11T23:24:35.456Z,92.88
2018-12-11T23:27:04.729Z,93.19
2018-12-11T23:29:33.025Z,93.04
2018-12-11T23:32:01.335Z,92.44
2018-12-11T23:34:29.877Z,91.96
2018-12-11T23:36:58.067Z,91.55
2018-12-11T23:39:26.340Z,91.31
2018-12-11T23:41:54.979Z,91.69
2018-12-11T23:44:23.177Z,91.80
2018-12-11T23:46:51.437Z,91.26
2018-12-11T23:49:19.700Z,90.89
2018-12-11T23:51:47.883Z,91.09
2018-12-11T23:54:16.129Z,91.13
2018-12-11T23:56:44.655Z,90.96
2018-12-11T23:59:12.876Z,90.71
